MI60 weather

Tannehill Airfield
Fife Lake, Michigan, United States

Public forecast

Using degrees Fahrenheit for public forecast. Weather courtesy of forecast.io.

METAR (pilot weather report)

Closest report is Cherry Capital Airport, 14.7 nm (27.2 km) NW. Retrieved 2019/06/24 07:53 UTC (42 minutes ago):

KTVC 240753Z AUTO VRB05KT 10SM BKN065 OVC110 21/12 A2967 RMK AO2 SLP043 T02110117

TAF (pilot weather forecast)

Closest forecast is Cherry Capital Airport, 14.7 nm (27.2 km) NW. Retrieved 2019/06/24 06:22 UTC (2 hours ago):

TAF KTVC 240520Z 2406/2506 15007KT 6SM -SHRA BR OVC120 FM241200 16007KT P6SM VCSH OVC030 FM241900 18008KT 6SM -SHRA BR VCTS BKN045CB FM242300 20005KT 6SM -SHRA BR OVC060